createdAt,value
2024-03-11T00:02:02.353Z,97417.09
2024-03-11T00:04:30.004Z,97412.97
2024-03-11T00:06:58.799Z,97412.75
2024-03-11T00:09:34.136Z,97410.03
2024-03-11T00:12:01.681Z,97404.22
2024-03-11T00:14:31.838Z,97403.59
2024-03-11T00:16:59.076Z,97402.97
2024-03-11T00:19:27.150Z,97405.47
2024-03-11T00:21:58.260Z,97401.69
2024-03-11T00:24:25.490Z,97399.00
2024-03-11T00:26:53.283Z,97398.13
2024-03-11T00:29:20.678Z,97400.00
2024-03-11T00:31:47.350Z,97403.25
2024-03-11T00:34:18.234Z,97407.81
2024-03-11T00:36:49.276Z,97404.03
2024-03-11T00:39:19.006Z,97401.50
2024-03-11T00:41:45.468Z,97402.06
2024-03-11T00:44:12.072Z,97396.88
2024-03-11T00:46:39.657Z,97397.06
2024-03-11T00:49:09.624Z,97398.94
2024-03-11T00:51:36.435Z,97415.56
2024-03-11T00:54:03.059Z,97402.72
2024-03-11T00:56:29.599Z,97406.88
2024-03-11T00:58:56.183Z,97409.56
2024-03-11T01:01:22.732Z,97405.41
2024-03-11T01:03:49.309Z,97402.22
2024-03-11T01:06:16.931Z,97404.09
2024-03-11T01:08:43.582Z,97404.16
2024-03-11T01:11:11.995Z,97401.00
2024-03-11T01:13:38.658Z,97391.19
2024-03-11T01:16:06.778Z,97394.97
2024-03-11T01:18:33.329Z,97397.72
2024-03-11T01:21:01.237Z,97397.78
2024-03-11T01:23:29.870Z,97390.66
2024-03-11T01:25:56.455Z,97394.19
2024-03-11T01:28:22.989Z,97403.34
2024-03-11T01:30:49.914Z,97409.63
2024-03-11T01:33:16.744Z,97403.78
2024-03-11T01:35:44.481Z,97405.47
2024-03-11T01:38:11.559Z,97397.72
2024-03-11T01:40:38.256Z,97411.66
2024-03-11T01:43:05.167Z,97400.19
2024-03-11T01:45:34.111Z,97390.13
2024-03-11T01:48:01.704Z,97392.00
2024-03-11T01:50:29.804Z,97397.66
2024-03-11T01:52:58.211Z,97404.16
2024-03-11T01:55:28.979Z,97403.56
2024-03-11T01:57:58.137Z,97401.69
2024-03-11T02:00:25.021Z,97416.28
2024-03-11T02:02:56.117Z,97425.22
2024-03-11T02:05:25.913Z,97407.75
2024-03-11T02:07:57.995Z,97422.97
2024-03-11T02:10:25.914Z,97426.94
2024-03-11T02:12:52.717Z,97422.09
2024-03-11T02:15:19.544Z,97420.03
2024-03-11T02:17:47.659Z,97429.00
2024-03-11T02:20:19.644Z,97427.81
2024-03-11T02:22:54.417Z,97439.88
2024-03-11T02:25:29.494Z,97449.28
2024-03-11T02:27:58.438Z,97445.97
2024-03-11T02:30:25.492Z,97444.50
2024-03-11T02:32:52.135Z,97445.47
2024-03-11T02:35:18.887Z,97450.56
2024-03-11T02:37:47.882Z,97449.06
2024-03-11T02:40:18.321Z,97453.19
2024-03-11T02:42:45.521Z,97451.09
2024-03-11T02:45:16.942Z,97467.13
2024-03-11T02:47:44.380Z,97472.84
2024-03-11T02:50:11.691Z,97464.88
2024-03-11T02:52:38.688Z,97468.72
2024-03-11T02:55:07.012Z,97473.63
2024-03-11T02:57:34.648Z,97482.81
2024-03-11T03:00:01.995Z,97473.81
2024-03-11T03:02:29.041Z,97469.09
2024-03-11T03:04:57.301Z,97480.56
2024-03-11T03:07:27.705Z,97493.41
2024-03-11T03:09:54.752Z,97492.97
2024-03-11T03:12:21.837Z,97501.34
2024-03-11T03:14:48.792Z,97504.81
2024-03-11T03:17:15.608Z,97517.47
2024-03-11T03:19:42.172Z,97518.63
2024-03-11T03:22:09.053Z,97520.53
2024-03-11T03:24:35.672Z,97514.53
2024-03-11T03:27:02.222Z,97524.25
2024-03-11T03:29:28.815Z,97517.63
2024-03-11T03:31:55.426Z,97525.91
2024-03-11T03:34:21.955Z,97529.69
2024-03-11T03:36:48.516Z,97542.44
2024-03-11T03:39:15.115Z,97547.41
2024-03-11T03:41:41.684Z,97550.16
2024-03-11T03:44:08.320Z,97554.97
2024-03-11T03:46:34.995Z,97555.03
2024-03-11T03:49:02.527Z,97560.22
2024-03-11T03:51:29.317Z,97570.41
2024-03-11T03:53:58.206Z,97547.78
2024-03-11T03:56:26.833Z,97563.22
2024-03-11T03:58:54.330Z,97570.94
2024-03-11T04:01:21.167Z,97572.78
2024-03-11T04:03:47.750Z,97584.69
2024-03-11T04:06:15.035Z,97585.53
2024-03-11T04:08:42.052Z,97581.94
2024-03-11T04:11:08.764Z,97590.22
2024-03-11T04:13:36.906Z,97593.97
2024-03-11T04:16:05.885Z,97601.50
2024-03-11T04:18:32.552Z,97599.66
2024-03-11T04:20:59.155Z,97610.31
2024-03-11T04:23:27.523Z,97614.28
2024-03-11T04:25:54.220Z,97607.00
2024-03-11T04:28:20.823Z,97612.78
2024-03-11T04:30:47.395Z,97615.13
2024-03-11T04:33:18.188Z,97620.41
2024-03-11T04:35:45.554Z,97629.06
2024-03-11T04:38:13.694Z,97623.22
2024-03-11T04:40:42.643Z,97633.66
2024-03-11T04:43:09.530Z,97636.13
2024-03-11T04:45:38.511Z,97633.25
2024-03-11T04:48:11.340Z,97636.34
2024-03-11T04:50:42.963Z,97640.53
2024-03-11T04:53:10.828Z,97650.50
2024-03-11T04:55:40.486Z,97655.91
2024-03-11T04:58:07.073Z,97660.31
2024-03-11T05:00:34.087Z,97675.69
2024-03-11T05:03:02.600Z,97679.88
2024-03-11T05:05:37.289Z,97683.63
2024-03-11T05:08:05.307Z,97678.81
2024-03-11T05:10:32.295Z,97685.06
2024-03-11T05:12:59.559Z,97691.53
2024-03-11T05:15:29.549Z,97700.38
2024-03-11T05:17:56.874Z,97701.66
2024-03-11T05:20:23.726Z,97704.09
2024-03-11T05:22:50.993Z,97707.78
2024-03-11T05:25:20.722Z,97711.09
2024-03-11T05:27:48.529Z,97718.59
2024-03-11T05:30:17.047Z,97716.28
2024-03-11T05:32:44.154Z,97721.47
2024-03-11T05:35:11.360Z,97721.16
2024-03-11T05:37:37.954Z,97715.31
2024-03-11T05:40:07.474Z,97726.97
2024-03-11T05:42:35.240Z,97726.88
2024-03-11T05:45:02.610Z,97723.94
2024-03-11T05:47:29.256Z,97728.56
2024-03-11T05:49:56.195Z,97726.97
2024-03-11T05:52:26.183Z,97724.50
2024-03-11T05:54:53.891Z,97723.16
2024-03-11T05:57:26.333Z,97731.53
2024-03-11T05:59:53.937Z,97735.25
2024-03-11T06:02:21.722Z,97728.25
2024-03-11T06:04:48.750Z,97727.78
2024-03-11T06:07:25.129Z,97727.22
2024-03-11T06:09:52.675Z,97727.72
2024-03-11T06:12:22.924Z,97732.50
2024-03-11T06:14:50.790Z,97732.94
2024-03-11T06:17:18.095Z,97744.97
2024-03-11T06:19:45.847Z,97738.97
2024-03-11T06:22:13.257Z,97747.41
2024-03-11T06:24:40.174Z,97761.22
2024-03-11T06:27:07.326Z,97755.44
2024-03-11T06:29:34.274Z,97761.22
2024-03-11T06:32:00.888Z,97763.03
2024-03-11T06:34:28.784Z,97769.28
2024-03-11T06:36:56.340Z,97778.50
2024-03-11T06:39:22.996Z,97779.53
2024-03-11T06:41:49.788Z,97795.22
2024-03-11T06:44:21.288Z,97789.69
2024-03-11T06:46:58.465Z,97805.13
2024-03-11T06:49:26.655Z,97807.44
2024-03-11T06:51:53.158Z,97803.75
2024-03-11T06:54:19.732Z,97797.28
2024-03-11T06:56:46.248Z,97805.28
2024-03-11T06:59:12.928Z,97818.81
2024-03-11T07:01:40.242Z,97816.19
2024-03-11T07:04:06.965Z,97838.03
2024-03-11T07:06:33.893Z,97837.16
2024-03-11T07:09:02.509Z,97844.50
2024-03-11T07:11:29.101Z,97842.91
2024-03-11T07:13:55.710Z,97841.53
2024-03-11T07:16:23.937Z,97851.50
2024-03-11T07:18:54.512Z,97858.66
2024-03-11T07:21:21.180Z,97863.25
2024-03-11T07:23:49.451Z,97851.53
2024-03-11T07:26:16.097Z,97856.94
2024-03-11T07:28:42.683Z,97856.84
2024-03-11T07:31:10.485Z,97868.13
2024-03-11T07:33:37.580Z,97864.63
2024-03-11T07:36:04.548Z,97875.22
2024-03-11T07:38:31.195Z,97883.41
2024-03-11T07:40:57.773Z,97889.97
2024-03-11T07:43:24.355Z,97902.00
2024-03-11T07:45:50.942Z,97895.81
2024-03-11T07:48:17.697Z,97904.09
2024-03-11T07:50:44.361Z,97904.03
2024-03-11T07:53:13.477Z,97894.88
2024-03-11T07:55:41.231Z,97907.66
2024-03-11T07:58:08.284Z,97908.16
2024-03-11T08:00:37.712Z,97921.69
2024-03-11T08:03:05.225Z,97920.09
2024-03-11T08:05:32.195Z,97918.69
2024-03-11T08:07:59.649Z,97927.81
2024-03-11T08:10:29.752Z,97936.25
2024-03-11T08:12:56.781Z,97938.19
2024-03-11T08:15:23.606Z,97924.16
2024-03-11T08:17:52.145Z,97940.25
2024-03-11T08:20:21.756Z,97940.53
2024-03-11T08:22:53.802Z,97941.19
2024-03-11T08:25:28.738Z,97938.66
2024-03-11T08:27:56.045Z,97953.53
2024-03-11T08:30:25.230Z,97956.31
2024-03-11T08:32:51.880Z,97946.16
2024-03-11T08:35:22.705Z,97953.63
2024-03-11T08:37:51.025Z,97958.69
2024-03-11T08:40:20.834Z,97953.44
2024-03-11T08:42:54.005Z,97959.00
2024-03-11T08:45:24.256Z,97970.91
2024-03-11T08:47:52.504Z,97985.19
2024-03-11T08:50:23.353Z,97990.38
2024-03-11T08:52:50.807Z,97997.94
2024-03-11T08:55:18.317Z,97992.47
2024-03-11T08:57:50.750Z,97999.31
2024-03-11T09:00:18.394Z,98011.44
2024-03-11T09:02:48.478Z,98001.72
2024-03-11T09:05:19.391Z,97998.19
2024-03-11T09:07:47.527Z,98006.53
2024-03-11T09:10:17.654Z,98007.66
2024-03-11T09:12:46.006Z,98015.59
2024-03-11T09:15:20.536Z,98014.78
2024-03-11T09:17:51.209Z,98012.28
2024-03-11T09:20:21.508Z,98020.63
2024-03-11T09:22:49.433Z,98032.88
2024-03-11T09:25:25.449Z,98021.03
2024-03-11T09:27:55.028Z,98036.84
2024-03-11T09:30:21.888Z,98040.53
2024-03-11T09:32:50.838Z,98035.31
2024-03-11T09:35:18.409Z,98041.50
2024-03-11T09:37:52.625Z,98045.75
2024-03-11T09:40:29.120Z,98046.59
2024-03-11T09:42:57.498Z,98051.25
2024-03-11T09:45:29.592Z,98053.75
2024-03-11T09:47:58.151Z,98045.97
2024-03-11T09:50:34.752Z,98050.22
2024-03-11T09:53:13.937Z,98056.88
2024-03-11T09:55:44.946Z,98062.19
2024-03-11T09:58:14.381Z,98059.94
2024-03-11T10:00:53.872Z,98050.94
2024-03-11T10:03:23.473Z,98055.44
2024-03-11T10:06:02.288Z,98059.84
2024-03-11T10:08:32.470Z,98053.25
2024-03-11T10:11:22.523Z,98073.09
2024-03-11T10:13:53.647Z,98058.31
2024-03-11T10:16:28.985Z,98064.41
2024-03-11T10:19:04.550Z,98074.69
2024-03-11T10:21:35.744Z,98072.22
2024-03-11T10:24:03.150Z,98067.25
2024-03-11T10:26:43.500Z,98066.03
2024-03-11T10:29:12.840Z,98074.72
2024-03-11T10:31:42.703Z,98083.66
2024-03-11T10:34:21.776Z,98071.31
2024-03-11T10:36:56.751Z,98073.88
2024-03-11T10:39:23.434Z,98066.06
2024-03-11T10:41:51.894Z,98068.84
2024-03-11T10:44:30.571Z,98076.19
2024-03-11T10:47:15.466Z,98067.13
2024-03-11T10:49:46.851Z,98060.69
2024-03-11T10:52:17.043Z,98059.69
2024-03-11T10:54:58.219Z,98061.06
2024-03-11T10:57:40.360Z,98052.78
2024-03-11T11:00:18.069Z,98056.91
2024-03-11T11:02:50.867Z,98059.16
2024-03-11T11:05:25.239Z,98054.97
2024-03-11T11:07:57.101Z,98054.59
2024-03-11T11:10:30.912Z,98059.06
2024-03-11T11:12:57.902Z,98059.25
2024-03-11T11:15:25.279Z,98046.03
2024-03-11T11:17:55.735Z,98050.16
2024-03-11T11:20:39.079Z,98060.63
2024-03-11T11:23:06.322Z,98060.19
2024-03-11T11:25:40.772Z,98052.84
2024-03-11T11:28:08.508Z,98051.25
2024-03-11T11:30:37.804Z,98060.66
2024-03-11T11:33:05.224Z,98064.97
2024-03-11T11:35:37.195Z,98059.81
2024-03-11T11:38:39.525Z,98057.78
2024-03-11T11:41:38.508Z,98059.25
2024-03-11T11:44:05.226Z,98050.06
2024-03-11T11:46:44.777Z,98051.31
2024-03-11T11:49:22.565Z,98056.91
2024-03-11T11:51:52.772Z,98055.22
2024-03-11T11:54:34.527Z,98046.59
2024-03-11T11:57:03.437Z,98053.19
2024-03-11T11:59:30.677Z,98058.97
2024-03-11T12:02:01.306Z,98065.06
2024-03-11T12:04:30.706Z,98066.00
2024-03-11T12:06:58.174Z,98052.53
2024-03-11T12:09:25.265Z,98064.50
2024-03-11T12:11:58.354Z,98079.47
2024-03-11T12:14:24.951Z,98077.84
2024-03-11T12:17:03.692Z,98070.72
2024-03-11T12:19:31.512Z,98080.19
2024-03-11T12:21:59.647Z,98090.69
2024-03-11T12:24:27.244Z,98086.94
2024-03-11T12:26:57.184Z,98091.94
2024-03-11T12:29:24.181Z,98088.88
2024-03-11T12:31:57.240Z,98092.44
2024-03-11T12:34:25.622Z,98092.56
2024-03-11T12:36:53.672Z,98100.94
2024-03-11T12:39:43.927Z,98104.50
2024-03-11T12:42:10.687Z,98105.16
2024-03-11T12:44:38.029Z,98092.97
2024-03-11T12:47:06.230Z,98101.47
2024-03-11T12:49:33.231Z,98099.88
2024-03-11T12:52:05.207Z,98092.09
2024-03-11T12:54:32.162Z,98088.25
2024-03-11T12:57:18.134Z,98091.59
2024-03-11T12:59:58.845Z,98098.13
2024-03-11T13:02:25.482Z,98110.75
2024-03-11T13:04:54.528Z,98108.94
2024-03-11T13:07:24.463Z,98110.28
2024-03-11T13:09:58.155Z,98109.59
2024-03-11T13:12:30.253Z,98119.75
2024-03-11T13:14:57.480Z,98125.13
2024-03-11T13:17:24.266Z,98123.75
2024-03-11T13:19:57.374Z,98128.84
2024-03-11T13:22:23.987Z,98127.84
2024-03-11T13:24:57.502Z,98129.97
2024-03-11T13:27:26.266Z,98121.91
2024-03-11T13:29:52.830Z,98125.00
2024-03-11T13:32:21.582Z,98135.94
2024-03-11T13:34:49.955Z,98132.66
2024-03-11T13:37:17.255Z,98136.72
2024-03-11T13:39:45.338Z,98130.34
2024-03-11T13:42:13.823Z,98148.03
2024-03-11T13:44:42.139Z,98152.59
2024-03-11T13:47:10.298Z,98145.03
2024-03-11T13:49:41.267Z,98143.88
2024-03-11T13:52:10.285Z,98145.78
2024-03-11T13:54:39.202Z,98146.94
2024-03-11T13:57:08.335Z,98152.97
2024-03-11T13:59:35.267Z,98146.78
2024-03-11T14:02:01.954Z,98147.53
2024-03-11T14:04:29.228Z,98146.78
2024-03-11T14:06:55.884Z,98162.59
2024-03-11T14:09:24.768Z,98160.78
2024-03-11T14:11:53.433Z,98163.19
2024-03-11T14:14:20.094Z,98167.13
2024-03-11T14:16:48.444Z,98168.88
2024-03-11T14:19:17.543Z,98166.47
2024-03-11T14:21:45.272Z,98169.28
2024-03-11T14:24:14.958Z,98174.31
2024-03-11T14:26:43.980Z,98181.97
2024-03-11T14:29:16.995Z,98178.22
2024-03-11T14:31:47.900Z,98168.94
2024-03-11T14:34:15.646Z,98172.03
2024-03-11T14:36:44.982Z,98169.56
2024-03-11T14:39:21.182Z,98183.31
2024-03-11T14:41:48.871Z,98195.38
2024-03-11T14:44:16.204Z,98194.41
2024-03-11T14:46:52.888Z,98197.25
2024-03-11T14:49:25.655Z,98201.91
2024-03-11T14:51:55.022Z,98208.75
2024-03-11T14:54:30.920Z,98204.66
2024-03-11T14:56:57.968Z,98206.81
2024-03-11T14:59:28.371Z,98209.69
2024-03-11T15:01:55.580Z,98198.78
2024-03-11T15:04:26.384Z,98201.09
2024-03-11T15:06:53.511Z,98207.44
2024-03-11T15:09:20.598Z,98203.59
2024-03-11T15:11:48.914Z,98215.47
2024-03-11T15:14:21.459Z,98210.84
2024-03-11T15:16:49.979Z,98208.72
2024-03-11T15:19:16.646Z,98217.53
2024-03-11T15:21:44.919Z,98213.69
2024-03-11T15:24:11.849Z,98221.69
2024-03-11T15:26:38.488Z,98232.41
2024-03-11T15:29:09.212Z,98230.41
2024-03-11T15:31:36.385Z,98233.41
2024-03-11T15:34:04.575Z,98239.78
2024-03-11T15:36:34.217Z,98237.72
2024-03-11T15:39:00.882Z,98241.78
2024-03-11T15:41:27.792Z,98242.94
2024-03-11T15:43:56.588Z,98245.88
2024-03-11T15:46:24.438Z,98241.06
2024-03-11T15:48:53.116Z,98240.41
2024-03-11T15:51:21.705Z,98252.00
2024-03-11T15:53:51.505Z,98261.66
2024-03-11T15:56:20.178Z,98259.84
2024-03-11T15:58:47.423Z,98254.28
2024-03-11T16:01:23.417Z,98238.84
2024-03-11T16:03:52.342Z,98258.09
2024-03-11T16:06:19.339Z,98252.13
2024-03-11T16:08:47.323Z,98263.22
2024-03-11T16:11:14.591Z,98260.38
2024-03-11T16:13:41.620Z,98263.53
2024-03-11T16:16:09.600Z,98259.56
2024-03-11T16:18:37.195Z,98262.09
2024-03-11T16:21:03.938Z,98262.53
2024-03-11T16:23:32.048Z,98262.75
2024-03-11T16:26:02.669Z,98266.09
2024-03-11T16:28:30.425Z,98273.03
2024-03-11T16:30:57.174Z,98270.72
2024-03-11T16:33:25.820Z,98270.72
2024-03-11T16:35:52.361Z,98275.50
2024-03-11T16:38:19.573Z,98274.25
2024-03-11T16:40:47.070Z,98281.38
2024-03-11T16:43:17.317Z,98280.28
2024-03-11T16:45:44.608Z,98287.63
2024-03-11T16:48:12.753Z,98289.69
2024-03-11T16:50:46.432Z,98295.34
2024-03-11T16:53:13.726Z,98298.03
2024-03-11T16:55:42.467Z,98294.88
2024-03-11T16:58:12.597Z,98292.34
2024-03-11T17:00:43.913Z,98296.28
2024-03-11T17:03:10.908Z,98300.66
2024-03-11T17:05:39.717Z,98303.56
2024-03-11T17:08:09.636Z,98306.69
2024-03-11T17:10:37.059Z,98307.31
2024-03-11T17:13:08.165Z,98318.78
2024-03-11T17:15:36.562Z,98319.38
2024-03-11T17:18:04.403Z,98327.09
2024-03-11T17:20:43.302Z,98331.28
2024-03-11T17:23:14.263Z,98335.44
2024-03-11T17:25:40.865Z,98339.34
2024-03-11T17:28:11.972Z,98335.97
2024-03-11T17:30:42.174Z,98334.84
2024-03-11T17:33:10.178Z,98337.78
2024-03-11T17:35:41.495Z,98345.34
2024-03-11T17:38:10.162Z,98337.22
2024-03-11T17:40:38.269Z,98339.88
2024-03-11T17:43:11.060Z,98347.13
2024-03-11T17:45:40.568Z,98355.38
2024-03-11T17:48:09.082Z,98350.69
2024-03-11T17:50:36.729Z,98350.06
2024-03-11T17:53:03.431Z,98357.06
2024-03-11T17:55:38.015Z,98357.06
2024-03-11T17:58:05.906Z,98353.69
2024-03-11T18:00:34.356Z,98350.34
2024-03-11T18:03:08.378Z,98354.13
2024-03-11T18:05:36.465Z,98356.44
2024-03-11T18:08:10.598Z,98357.09
2024-03-11T18:10:41.871Z,98354.19
2024-03-11T18:13:12.921Z,98358.44
2024-03-11T18:15:41.653Z,98360.16
2024-03-11T18:18:11.229Z,98369.78
2024-03-11T18:20:41.381Z,98365.56
2024-03-11T18:23:13.453Z,98362.75
2024-03-11T18:25:40.500Z,98370.22
2024-03-11T18:28:09.170Z,98368.94
2024-03-11T18:30:39.198Z,98366.59
2024-03-11T18:33:08.026Z,98384.91
2024-03-11T18:35:36.500Z,98385.59
2024-03-11T18:38:07.583Z,98384.66
2024-03-11T18:40:35.024Z,98378.19
2024-03-11T18:43:02.286Z,98385.94
2024-03-11T18:45:30.743Z,98392.19
2024-03-11T18:47:57.553Z,98393.88
2024-03-11T18:50:25.519Z,98387.63
2024-03-11T18:52:59.758Z,98388.44
2024-03-11T18:55:31.067Z,98389.59
2024-03-11T18:57:59.089Z,98395.47
2024-03-11T19:00:30.638Z,98392.94
2024-03-11T19:02:58.114Z,98397.97
2024-03-11T19:05:25.789Z,98394.63
2024-03-11T19:07:52.420Z,98397.13
2024-03-11T19:10:19.057Z,98395.47
2024-03-11T19:12:48.530Z,98387.91
2024-03-11T19:15:16.162Z,98399.00
2024-03-11T19:17:46.864Z,98402.00
2024-03-11T19:20:16.723Z,98400.03
2024-03-11T19:22:46.580Z,98411.59
2024-03-11T19:25:19.389Z,98411.88
2024-03-11T19:27:47.017Z,98418.03
2024-03-11T19:30:16.325Z,98410.53
2024-03-11T19:32:43.495Z,98423.25
2024-03-11T19:35:15.527Z,98427.44
2024-03-11T19:38:35.822Z,98432.56
2024-03-11T19:41:23.813Z,98436.38
2024-03-11T19:44:16.312Z,98439.66
2024-03-11T19:47:07.985Z,98443.88
2024-03-11T19:50:13.368Z,98458.69
2024-03-11T19:53:18.520Z,98445.97
2024-03-11T19:56:17.949Z,98449.81
2024-03-11T19:59:23.312Z,98450.19
2024-03-11T20:02:02.335Z,98458.19
2024-03-11T20:05:17.187Z,98457.00
2024-03-11T20:08:07.604Z,98459.91
2024-03-11T20:10:58.917Z,98462.78
2024-03-11T20:14:13.325Z,98476.22
2024-03-11T20:16:53.724Z,98481.38
2024-03-11T20:19:42.173Z,98478.44
2024-03-11T20:22:40.041Z,98473.34
2024-03-11T20:25:25.518Z,98476.25
2024-03-11T20:28:07.592Z,98482.47
2024-03-11T20:31:07.493Z,98489.88
2024-03-11T20:33:34.866Z,98492.25
2024-03-11T20:36:02.970Z,98494.22
2024-03-11T20:38:29.879Z,98499.28
2024-03-11T20:40:56.811Z,98497.22
2024-03-11T20:43:24.204Z,98499.59
2024-03-11T20:45:52.894Z,98499.75
2024-03-11T20:48:20.041Z,98503.00
2024-03-11T20:50:47.236Z,98503.81
2024-03-11T20:53:18.234Z,98513.78
2024-03-11T20:55:44.835Z,98504.81
2024-03-11T20:58:12.438Z,98508.38
2024-03-11T21:00:39.371Z,98511.44
2024-03-11T21:03:06.625Z,98509.25
2024-03-11T21:05:36.478Z,98513.84
2024-03-11T21:08:03.730Z,98522.59
2024-03-11T21:10:31.203Z,98523.31
2024-03-11T21:12:58.459Z,98525.50
2024-03-11T21:15:27.793Z,98524.66
2024-03-11T21:17:55.173Z,98528.88
2024-03-11T21:20:22.179Z,98523.97
2024-03-11T21:22:53.912Z,98526.00
2024-03-11T21:25:24.399Z,98531.53
2024-03-11T21:27:55.331Z,98537.97
2024-03-11T21:30:23.389Z,98527.34
2024-03-11T21:32:51.279Z,98548.63
2024-03-11T21:35:18.968Z,98542.56
2024-03-11T21:37:46.353Z,98553.16
2024-03-11T21:40:15.487Z,98542.72
2024-03-11T21:42:50.538Z,98549.97
2024-03-11T21:45:20.213Z,98547.94
2024-03-11T21:47:46.929Z,98550.94
2024-03-11T21:50:13.975Z,98552.66
2024-03-11T21:52:40.798Z,98556.53
2024-03-11T21:55:12.077Z,98559.44
2024-03-11T21:57:40.467Z,98562.13
2024-03-11T22:00:08.224Z,98562.97
2024-03-11T22:02:35.675Z,98544.41
2024-03-11T22:05:02.227Z,98558.06
2024-03-11T22:07:33.084Z,98557.22
2024-03-11T22:09:59.733Z,98562.13
2024-03-11T22:12:26.477Z,98556.88
2024-03-11T22:14:53.156Z,98548.63
2024-03-11T22:17:19.839Z,98560.44
2024-03-11T22:19:46.504Z,98557.75
2024-03-11T22:22:13.219Z,98556.91
2024-03-11T22:24:42.483Z,98557.41
2024-03-11T22:27:09.112Z,98558.59
2024-03-11T22:29:35.660Z,98563.97
2024-03-11T22:32:02.246Z,98557.75
2024-03-11T22:34:29.024Z,98564.16
2024-03-11T22:36:55.980Z,98552.50
2024-03-11T22:39:24.286Z,98558.25
2024-03-11T22:41:51.435Z,98559.09
2024-03-11T22:44:18.291Z,98557.56
2024-03-11T22:46:45.147Z,98562.31
2024-03-11T22:49:14.331Z,98559.25
2024-03-11T22:51:43.947Z,98559.25
2024-03-11T22:54:10.845Z,98553.69
2024-03-11T22:56:38.443Z,98556.72
2024-03-11T22:59:05.716Z,98544.06
2024-03-11T23:01:34.857Z,98555.03
2024-03-11T23:04:05.953Z,98561.97
2024-03-11T23:06:33.805Z,98561.78
2024-03-11T23:09:00.922Z,98562.81
2024-03-11T23:11:27.818Z,98565.00
2024-03-11T23:13:54.588Z,98560.28
2024-03-11T23:16:22.016Z,98556.06
2024-03-11T23:18:51.193Z,98564.47
2024-03-11T23:21:18.546Z,98563.47
2024-03-11T23:23:46.893Z,98567.34
2024-03-11T23:26:14.471Z,98561.25
2024-03-11T23:28:41.254Z,98563.81
2024-03-11T23:31:10.382Z,98561.44
2024-03-11T23:33:37.316Z,98562.44
2024-03-11T23:36:04.165Z,98572.00
2024-03-11T23:38:33.388Z,98568.66
2024-03-11T23:41:00.273Z,98565.69
2024-03-11T23:43:27.030Z,98572.13
2024-03-11T23:45:55.171Z,98578.75
2024-03-11T23:48:26.335Z,98580.28
2024-03-11T23:50:56.619Z,98574.72
2024-03-11T23:53:25.466Z,98571.53
2024-03-11T23:56:01.901Z,98576.88
2024-03-11T23:58:33.546Z,98580.44
